Time;durP1;ratioP1;P1;durP2;ratioP2;P2;SDS_P1;SDS_P2;PMS_P1;PMS_P2;Temp;Humidity;BMP_temperature;BMP_pressure;BME280_temperature;BME280_humidity;BME280_pressure;Samples;Min_cycle;Max_cycle;Signal;HPM_P1;HPM_P2
2021/08/10 00:00:28;;;;;;;;;8.00;6.00;;;;;23.87;49.75;100864.72;6257537;22;45248;-84
2021/08/10 00:02:57;;;;;;;;;8.00;6.75;;;;;23.93;49.79;100885.78;6256141;22;45420;-84
2021/08/10 00:05:22;;;;;;;;;5.00;4.75;;;;;23.92;49.65;100892.03;6283137;22;45193;-84
2021/08/10 00:07:48;;;;;;;;;7.00;5.25;;;;;23.94;49.91;100880.38;6281875;22;64528;-85
2021/08/10 00:10:13;;;;;;;;;6.75;4.75;;;;;23.87;49.63;100876.22;6282066;22;56788;-84
2021/08/10 00:12:38;;;;;;;;;7.50;5.00;;;;;23.91;49.97;100879.66;6282140;22;60440;-85
2021/08/10 00:15:05;;;;;;;;;8.25;8.00;;;;;23.89;49.83;100873.50;6309940;22;56256;-85
2021/08/10 00:17:31;;;;;;;;;5.75;5.75;;;;;23.90;50.10;100870.78;6282406;22;45176;-85
2021/08/10 00:19:56;;;;;;;;;6.00;6.00;;;;;23.88;49.90;100871.75;6283391;22;45194;-84
2021/08/10 00:22:22;;;;;;;;;5.25;5.25;;;;;23.89;50.17;100871.72;6281939;22;59250;-84
2021/08/10 00:24:47;;;;;;;;;8.00;6.00;;;;;23.88;50.07;100866.44;6256871;22;45908;-85
2021/08/10 00:27:14;;;;;;;;;7.00;4.00;;;;;23.87;49.98;100862.91;6256721;22;53252;-85
2021/08/10 00:29:40;;;;;;;;;6.00;6.00;;;;;23.90;49.45;100865.47;6257697;22;45343;-84
2021/08/10 00:32:06;;;;;;;;;5.25;5.00;;;;;23.95;50.26;100881.22;6282679;22;45553;-85
2021/08/10 00:34:31;;;;;;;;;9.50;5.50;;;;;23.89;50.20;100862.84;6231232;22;47154;-85
2021/08/10 00:36:56;;;;;;;;;6.00;5.75;;;;;23.92;49.85;100873.38;6282703;22;51625;-85
2021/08/10 00:39:22;;;;;;;;;9.00;7.00;;;;;23.89;50.31;100853.06;6282610;22;46284;-85
2021/08/10 00:41:47;;;;;;;;;9.00;6.25;;;;;23.93;50.46;100862.66;6231047;22;45132;-84
2021/08/10 00:44:13;;;;;;;;;7.00;5.00;;;;;23.90;50.19;100851.25;6256848;22;47946;-85
2021/08/10 00:46:41;;;;;;;;;7.00;7.00;;;;;23.94;49.70;100864.38;6230136;22;52744;-84
2021/08/10 00:49:06;;;;;;;;;5.50;5.50;;;;;23.86;49.77;100861.19;6282901;22;47573;-85
2021/08/10 00:51:32;;;;;;;;;6.25;6.00;;;;;23.89;49.27;100868.16;6282821;22;45213;-84
2021/08/10 00:54:01;;;;;;;;;7.50;6.75;;;;;23.86;49.32;100865.66;6256888;22;45345;-85
2021/08/10 00:56:27;;;;;;;;;6.50;5.00;;;;;23.84;49.64;100872.84;6256516;22;51866;-85
2021/08/10 00:58:52;;;;;;;;;5.00;5.00;;;;;23.85;49.24;100874.56;6257508;22;45608;-85
2021/08/10 01:01:17;;;;;;;;;6.00;5.00;;;;;23.86;49.15;100887.84;6257266;22;45498;-85
2021/08/10 01:03:43;;;;;;;;;6.50;6.50;;;;;23.85;48.99;100885.25;6256740;22;53383;-85
2021/08/10 01:06:17;;;;;;;;;5.00;5.00;;;;;23.85;49.71;100895.91;6231185;22;45155;-85
2021/08/10 01:08:54;;;;;;;;;6.50;5.50;;;;;23.88;50.20;100909.94;6256685;22;45181;-85
2021/08/10 01:11:41;;;;;;;;;6.75;5.75;;;;;23.87;50.04;100904.69;6284036;22;45257;-85
2021/08/10 01:14:28;;;;;;;;;6.25;5.50;;;;;23.87;50.35;100902.88;6309762;22;45152;-85
2021/08/10 01:17:00;;;;;;;;;5.00;5.00;;;;;23.86;50.28;100911.81;6282696;22;45342;-85
2021/08/10 01:19:33;;;;;;;;;6.25;6.25;;;;;23.86;50.79;100924.28;6257366;22;45117;-85
2021/08/10 01:21:58;;;;;;;;;5.50;4.25;;;;;23.85;50.55;100911.91;6283486;22;45219;-85
2021/08/10 01:24:29;;;;;;;;;6.00;6.00;;;;;23.84;50.42;100919.03;6282016;22;45274;-85
2021/08/10 01:27:16;;;;;;;;;5.00;5.00;;;;;23.82;50.63;100910.25;6257009;22;45343;-85
2021/08/10 01:30:07;;;;;;;;;5.75;5.00;;;;;23.76;50.65;100907.81;6282379;22;45331;-85
2021/08/10 01:32:33;;;;;;;;;6.25;6.25;;;;;23.65;50.73;100883.44;6291865;22;45322;-85
2021/08/10 01:35:01;;;;;;;;;9.00;7.50;;;;;23.67;51.67;100886.91;6282347;22;45508;-85
2021/08/10 01:37:27;;;;;;;;;6.75;6.75;;;;;23.68;51.69;100891.28;6257946;22;45382;-85
2021/08/10 01:39:56;;;;;;;;;7.75;7.75;;;;;23.65;51.50;100892.31;6282701;22;45453;-85
2021/08/10 01:42:21;;;;;;;;;6.25;6.25;;;;;23.67;52.00;100893.09;6257347;22;45105;-85
2021/08/10 01:44:47;;;;;;;;;6.75;5.75;;;;;23.63;51.67;100886.19;6281620;22;65000;-85
2021/08/10 01:47:12;;;;;;;;;7.00;6.50;;;;;23.65;51.90;100889.63;6281791;22;45974;-83
2021/08/10 01:49:38;;;;;;;;;5.75;5.75;;;;;23.58;51.81;100882.78;6257175;22;45388;-85
2021/08/10 01:52:03;;;;;;;;;8.00;5.00;;;;;23.61;52.52;100892.47;6256073;22;45343;-84
2021/08/10 01:54:29;;;;;;;;;8.50;7.50;;;;;23.57;52.79;100896.19;6282270;22;46322;-85
2021/08/10 01:56:54;;;;;;;;;8.25;7.00;;;;;23.54;52.74;100896.28;6256384;22;47323;-85
2021/08/10 01:59:20;;;;;;;;;6.00;6.00;;;;;23.52;52.59;100898.16;6256984;22;45225;-85
2021/08/10 02:01:45;;;;;;;;;5.50;5.50;;;;;23.50;52.45;100897.38;6255719;22;50739;-85
2021/08/10 02:04:10;;;;;;;;;8.00;6.25;;;;;23.40;53.10;100896.88;6256525;22;45842;-85
2021/08/10 02:06:37;;;;;;;;;6.50;5.25;;;;;23.42;52.81;100905.69;6254798;22;45901;-85
2021/08/10 02:09:02;;;;;;;;;9.75;7.75;;;;;23.41;53.49;100896.81;6256770;22;45231;-85
2021/08/10 02:11:28;;;;;;;;;8.00;6.50;;;;;23.42;53.21;100898.56;6230897;22;45378;-85
2021/08/10 02:13:53;;;;;;;;;10.25;6.25;;;;;23.38;53.46;100890.78;6256170;22;46232;-85
2021/08/10 02:16:19;;;;;;;;;7.25;7.00;;;;;23.41;53.41;100898.63;6256286;22;45317;-85
2021/08/10 02:18:46;;;;;;;;;7.50;7.50;;;;;23.42;53.19;100903.88;6256296;22;45258;-85
2021/08/10 02:21:24;;;;;;;;;7.75;7.00;;;;;23.41;53.34;100899.47;6230810;22;45330;-85
2021/08/10 02:23:51;;;;;;;;;6.25;6.25;;;;;23.42;53.59;100903.00;6283354;22;47568;-85
2021/08/10 02:26:17;;;;;;;;;5.25;5.25;;;;;23.36;53.37;100884.63;6256803;22;45279;-85
2021/08/10 02:28:42;;;;;;;;;8.25;6.00;;;;;23.36;53.78;100880.16;6282352;22;48063;-85
2021/08/10 02:31:08;;;;;;;;;7.00;6.25;;;;;23.35;54.08;100874.88;6256421;22;45209;-85
2021/08/10 02:33:33;;;;;;;;;7.00;7.00;;;;;23.38;53.50;100886.31;6255422;22;47114;-85
2021/08/10 02:35:59;;;;;;;;;7.00;7.00;;;;;23.36;53.38;100884.63;6256116;22;45189;-85
2021/08/10 02:38:25;;;;;;;;;7.00;6.00;;;;;23.33;54.09;100884.75;6282190;22;45313;-85
2021/08/10 02:40:51;;;;;;;;;8.50;7.00;;;;;23.34;53.83;100894.47;6256401;22;45253;-84
2021/08/10 02:43:17;;;;;;;;;8.75;7.00;;;;;23.33;54.04;100890.06;6256694;22;45176;-85
2021/08/10 02:45:43;;;;;;;;;6.00;6.00;;;;;23.30;53.85;100872.44;6256434;22;45307;-85
2021/08/10 02:48:08;;;;;;;;;9.50;7.00;;;;;23.32;53.87;100875.91;6256235;22;45306;-84
2021/08/10 02:50:34;;;;;;;;;10.75;7.25;;;;;23.28;53.93;100876.97;6256577;22;45354;-83
2021/08/10 02:52:59;;;;;;;;;6.50;6.50;;;;;23.27;54.13;100882.31;6255148;22;63867;-84
2021/08/10 02:55:25;;;;;;;;;6.75;6.50;;;;;23.29;54.35;100883.16;6255246;22;59263;-83
2021/08/10 02:57:56;;;;;;;;;8.00;6.25;;;;;23.33;54.13;100888.28;6256118;22;45334;-83
2021/08/10 03:00:22;;;;;;;;;7.25;7.25;;;;;23.28;54.28;100874.31;6307644;22;45136;-84
2021/08/10 03:02:48;;;;;;;;;5.00;5.00;;;;;23.36;54.37;100885.47;6256331;22;45515;-83
2021/08/10 03:05:23;;;;;;;;;7.00;6.50;;;;;23.39;54.35;100874.72;6307655;22;45845;-84
2021/08/10 03:07:54;;;;;;;;;6.75;6.50;;;;;23.36;54.25;100872.16;6281510;22;45398;-84
2021/08/10 03:10:19;;;;;;;;;9.00;7.00;;;;;23.36;53.81;100872.16;6230925;22;45486;-84
2021/08/10 03:12:51;;;;;;;;;7.75;7.25;;;;;23.35;54.52;100874.88;6257293;22;45756;-83
2021/08/10 03:15:25;;;;;;;;;6.00;6.00;;;;;23.31;54.40;100871.50;6258351;22;45474;-84
2021/08/10 03:17:58;;;;;;;;;7.00;6.25;;;;;23.32;54.33;100881.22;6258884;22;45241;-84
2021/08/10 03:20:24;;;;;;;;;8.00;7.00;;;;;23.33;53.93;100879.41;6231929;22;45727;-84
2021/08/10 03:22:49;;;;;;;;;6.50;6.50;;;;;23.33;54.23;100874.97;6231125;22;47075;-84
2021/08/10 03:25:15;;;;;;;;;7.75;7.00;;;;;23.35;54.24;100880.22;6257071;22;51731;-84
2021/08/10 03:27:41;;;;;;;;;7.00;7.00;;;;;23.38;54.30;100890.78;6282939;22;45346;-85
2021/08/10 03:30:07;;;;;;;;;8.00;6.75;;;;;23.37;54.35;100876.59;6283157;22;45327;-84
2021/08/10 03:32:33;;;;;;;;;7.00;6.25;;;;;23.38;54.50;100885.44;6257418;22;45236;-84
2021/08/10 03:34:58;;;;;;;;;7.50;7.50;;;;;23.33;54.10;100866.97;6231677;22;45572;-84
2021/08/10 03:37:24;;;;;;;;;6.75;6.75;;;;;23.33;54.41;100866.09;6283302;22;45204;-84
2021/08/10 03:39:49;;;;;;;;;6.00;6.00;;;;;23.31;54.62;100862.66;6257290;22;47120;-84
2021/08/10 03:42:14;;;;;;;;;8.25;7.75;;;;;23.32;54.35;100856.38;6256485;22;47604;-84
2021/08/10 03:44:42;;;;;;;;;7.75;7.75;;;;;23.29;54.12;100859.19;6257353;22;46647;-84
2021/08/10 03:47:11;;;;;;;;;6.25;6.00;;;;;23.27;54.51;100859.22;6258272;22;45177;-84
2021/08/10 03:49:37;;;;;;;;;6.00;6.00;;;;;23.21;54.76;100862.16;6257780;22;45616;-84
2021/08/10 03:52:02;;;;;;;;;6.75;6.75;;;;;23.20;54.51;100864.91;6256764;22;45388;-84
2021/08/10 03:54:28;;;;;;;;;8.50;6.50;;;;;23.18;54.86;100864.06;6256995;22;45244;-84
2021/08/10 03:56:54;;;;;;;;;10.00;8.00;;;;;23.18;55.19;100870.25;6231441;22;45162;-84
2021/08/10 03:59:20;;;;;;;;;7.75;7.75;;;;;23.19;54.81;100872.00;6257587;22;45195;-84
2021/08/10 04:01:47;;;;;;;;;9.25;7.50;;;;;23.16;54.84;100882.78;6256689;22;50321;-84
2021/08/10 04:04:12;;;;;;;;;5.00;5.00;;;;;23.15;54.94;100873.06;6257056;22;45892;-84
2021/08/10 04:06:37;;;;;;;;;5.75;5.00;;;;;23.22;55.28;100881.66;6257541;22;45490;-84
2021/08/10 04:09:03;;;;;;;;;6.00;6.00;;;;;23.17;55.05;100871.19;6282294;22;49523;-84
2021/08/10 04:11:28;;;;;;;;;8.50;8.50;;;;;23.12;55.48;100879.38;6257058;22;45595;-84
2021/08/10 04:13:54;;;;;;;;;9.25;7.25;;;;;23.12;55.45;100876.72;6255098;22;65570;-84
2021/08/10 04:16:19;;;;;;;;;5.75;5.75;;;;;23.11;55.10;100868.81;6282932;22;47708;-84
2021/08/10 04:18:45;;;;;;;;;8.50;8.50;;;;;23.11;54.91;100877.66;6256554;22;45364;-84
2021/08/10 04:21:10;;;;;;;;;8.00;7.50;;;;;23.12;55.21;100882.03;6256540;22;45354;-84
2021/08/10 04:23:35;;;;;;;;;9.75;8.00;;;;;23.13;55.64;100886.44;6256190;22;45356;-84
2021/08/10 04:26:01;;;;;;;;;7.50;6.50;;;;;23.15;55.22;100885.50;6282860;22;46406;-84
2021/08/10 04:28:26;;;;;;;;;9.75;8.00;;;;;23.10;55.82;100888.34;6231223;22;45765;-84
2021/08/10 04:30:52;;;;;;;;;7.25;6.50;;;;;23.08;55.39;100885.75;6256689;22;47367;-84
2021/08/10 04:33:17;;;;;;;;;6.75;6.75;;;;;23.13;55.79;100896.22;6257156;22;45395;-84
2021/08/10 04:35:43;;;;;;;;;8.00;7.25;;;;;23.10;55.53;100899.84;6310838;22;45202;-84
2021/08/10 04:38:08;;;;;;;;;6.50;6.00;;;;;23.05;55.60;100888.53;6310319;22;45163;-84
2021/08/10 04:40:34;;;;;;;;;8.00;6.00;;;;;23.05;55.75;100888.53;6256674;22;45224;-84
2021/08/10 04:42:59;;;;;;;;;6.75;6.75;;;;;23.09;55.82;100899.91;6256631;22;45228;-84
2021/08/10 04:45:24;;;;;;;;;7.50;6.25;;;;;23.10;55.47;100902.50;6257183;22;45246;-84
2021/08/10 04:47:52;;;;;;;;;9.00;5.25;;;;;23.09;56.00;100900.78;6283264;22;45195;-84
2021/08/10 04:50:18;;;;;;;;;6.00;6.00;;;;;23.12;55.56;100906.00;6257406;22;47140;-83
2021/08/10 04:52:43;;;;;;;;;9.50;9.00;;;;;23.12;55.41;100908.66;6256230;22;45294;-83
2021/08/10 04:55:15;;;;;;;;;8.00;6.00;;;;;23.09;55.81;100897.25;6282574;22;50322;-84
2021/08/10 04:57:40;;;;;;;;;8.50;7.25;;;;;23.11;55.43;100893.63;6282760;22;56595;-84
2021/08/10 05:00:06;;;;;;;;;9.00;8.00;;;;;23.10;55.49;100891.00;6256637;22;54354;-84
2021/08/10 05:02:31;;;;;;;;;7.25;7.25;;;;;23.18;55.75;100909.34;6283176;22;45134;-85
2021/08/10 05:04:57;;;;;;;;;7.00;7.00;;;;;23.19;55.95;100911.94;6256884;22;45162;-85
2021/08/10 05:07:22;;;;;;;;;8.75;6.25;;;;;23.18;55.79;100909.34;6282964;22;45126;-86
2021/08/10 05:09:48;;;;;;;;;6.75;6.75;;;;;23.22;55.69;100914.50;6230861;22;47064;-85
2021/08/10 05:12:13;;;;;;;;;10.75;8.25;;;;;23.20;55.74;100915.50;6231747;22;45339;-86
2021/08/10 05:14:38;;;;;;;;;11.50;9.00;;;;;23.16;55.67;100911.19;6282810;22;45743;-85
2021/08/10 05:17:04;;;;;;;;;9.50;7.50;;;;;23.18;55.47;100912.00;6283562;22;45361;-85
2021/08/10 05:19:29;;;;;;;;;10.00;7.00;;;;;23.17;55.77;100912.94;6257058;22;45392;-85
2021/08/10 05:21:55;;;;;;;;;8.75;7.00;;;;;23.06;56.01;100906.25;6256431;22;45775;-85
2021/08/10 05:24:20;;;;;;;;;7.00;7.00;;;;;23.05;55.68;100899.19;6281859;22;50890;-85
2021/08/10 05:26:45;;;;;;;;;9.25;7.00;;;;;23.02;56.14;100909.97;6256649;22;45550;-88
2021/08/10 05:29:11;;;;;;;;;7.00;7.00;;;;;23.03;55.62;100911.69;6256291;22;51904;-82
2021/08/10 05:31:36;;;;;;;;;7.75;7.50;;;;;23.02;56.09;100909.97;6310139;22;46855;-81
2021/08/10 05:34:02;;;;;;;;;8.25;7.25;;;;;23.10;56.39;100926.47;6232452;22;45363;-82
2021/08/10 05:36:27;;;;;;;;;7.00;7.00;;;;;23.05;56.03;100923.16;6258620;22;45312;-78
2021/08/10 05:39:03;;;;;;;;;6.50;6.50;;;;;23.14;56.62;100924.59;6309440;22;57769;-78
2021/08/10 05:41:31;;;;;;;;;9.25;7.50;;;;;23.15;56.71;100922.78;6259278;22;45269;-78
2021/08/10 05:43:56;;;;;;;;;7.50;6.75;;;;;23.20;56.51;100910.16;6310304;22;45222;-84
2021/08/10 05:46:22;;;;;;;;;6.25;6.25;;;;;23.21;57.06;100906.56;6257297;22;45121;-82
2021/08/10 05:48:47;;;;;;;;;7.25;6.25;;;;;23.32;56.78;100912.31;6282165;22;47278;-81
2021/08/10 05:51:12;;;;;;;;;8.00;6.25;;;;;23.41;57.17;100904.81;6256195;22;45804;-80
2021/08/10 05:53:38;;;;;;;;;8.00;7.00;;;;;23.47;56.47;100909.03;6309907;22;49616;-81
2021/08/10 05:56:19;;;;;;;;;7.00;7.00;;;;;23.51;56.27;100902.63;5114749;27;45377;-83
2021/08/10 05:58:44;;;;;;;;;9.00;8.00;;;;;23.56;56.13;100913.97;5096229;27;45649;-81
2021/08/10 06:01:17;;;;;;;;;7.25;6.75;;;;;23.57;55.60;100910.38;5096375;27;45207;-83
2021/08/10 06:03:42;;;;;;;;;7.00;6.25;;;;;23.50;55.67;100911.56;5079466;27;46339;-81
2021/08/10 06:06:08;;;;;;;;;7.00;7.00;;;;;23.52;55.17;100920.34;5096145;27;46449;-84
2021/08/10 06:08:33;;;;;;;;;8.25;8.25;;;;;23.42;55.70;100903.00;5078559;27;64326;-81
2021/08/10 06:10:59;;;;;;;;;7.00;6.75;;;;;23.46;55.60;100904.63;5096093;27;45394;-84
2021/08/10 06:13:24;;;;;;;;;9.00;7.00;;;;;23.46;55.17;100917.09;5098338;27;45475;-84
2021/08/10 06:15:50;;;;;;;;;6.75;6.50;;;;;23.44;55.44;100922.47;5061788;27;47247;-82
2021/08/10 06:18:17;;;;;;;;;7.50;6.00;;;;;23.31;55.60;100916.78;5095960;27;45270;-84
2021/08/10 06:20:42;;;;;;;;;6.75;6.75;;;;;23.33;55.29;100928.22;5079516;27;45295;-85
2021/08/10 06:23:08;;;;;;;;;6.75;6.25;;;;;23.30;55.92;100927.50;5096095;27;45499;-83
2021/08/10 06:25:33;;;;;;;;;6.00;6.00;;;;;23.29;55.43;100925.78;5096156;27;45278;-85
2021/08/10 06:27:58;;;;;;;;;7.00;7.00;;;;;23.33;55.83;100933.56;5096425;27;59680;-82
2021/08/10 06:30:24;;;;;;;;;7.75;7.75;;;;;23.30;55.74;100922.16;5096216;27;45257;-83
2021/08/10 06:32:56;;;;;;;;;9.50;7.00;;;;;23.16;55.90;100911.19;5095611;27;52300;-84
2021/08/10 06:35:22;;;;;;;;;9.75;8.00;;;;;23.15;56.04;100920.97;5079620;27;47565;-86
2021/08/10 06:37:47;;;;;;;;;7.50;6.00;;;;;23.08;55.70;100920.34;5061661;27;45417;-86
2021/08/10 06:40:15;;;;;;;;;8.00;6.25;;;;;23.15;56.11;100922.78;5095736;27;45191;-83
2021/08/10 06:42:41;;;;;;;;;10.75;8.75;;;;;23.12;55.93;100918.47;5095509;27;46320;-83
2021/08/10 06:45:08;;;;;;;;;7.00;7.00;;;;;23.06;55.98;100910.69;5095444;27;46616;-85
2021/08/10 06:47:33;;;;;;;;;8.50;6.75;;;;;22.97;56.18;100914.59;5078796;27;45292;-86
2021/08/10 06:49:59;;;;;;;;;9.50;8.25;;;;;22.92;56.34;100905.03;5095914;27;45357;-87
2021/08/10 06:52:24;;;;;;;;;7.00;6.25;;;;;22.96;56.07;100915.53;5061534;27;45705;-87
2021/08/10 06:54:50;;;;;;;;;6.75;6.75;;;;;22.95;56.50;100915.59;5077796;27;46684;-88
2021/08/10 06:57:18;;;;;;;;;8.00;7.75;;;;;22.96;56.19;100918.19;5078429;27;45236;-88
2021/08/10 06:59:44;;;;;;;;;7.75;7.25;;;;;22.89;56.13;100911.38;5066469;27;45425;-88
2021/08/10 07:02:09;;;;;;;;;9.00;6.75;;;;;22.97;56.28;100927.03;5073017;27;45619;-86
2021/08/10 07:04:36;;;;;;;;;10.00;9.50;;;;;22.97;56.59;100919.06;5076901;27;48357;-87
2021/08/10 07:07:05;;;;;;;;;8.00;8.00;;;;;22.92;55.93;100911.22;5083019;27;45843;-84
2021/08/10 07:09:30;;;;;;;;;7.25;7.00;;;;;22.97;56.50;100925.25;5072241;27;45479;-85
2021/08/10 07:11:55;;;;;;;;;7.25;6.75;;;;;22.99;55.90;100926.03;5062602;28;45463;-81
2021/08/10 07:14:21;;;;;;;;;8.00;8.00;;;;;22.99;56.16;100935.81;5080913;28;45351;-84
2021/08/10 07:16:46;;;;;;;;;8.00;7.75;;;;;22.95;55.91;100932.44;5079581;28;52229;-83
2021/08/10 07:19:14;;;;;;;;;9.00;8.75;;;;;22.92;55.68;100932.53;5063524;28;45359;-83
2021/08/10 07:21:40;;;;;;;;;9.25;7.25;;;;;22.97;56.21;100933.22;5082333;27;45394;-79
2021/08/10 07:24:06;;;;;;;;;7.50;7.00;;;;;22.98;55.86;100942.06;5082232;27;45408;-78
2021/08/10 07:26:32;;;;;;;;;6.75;6.75;;;;;22.99;55.77;100947.34;5064537;28;45379;-80
2021/08/10 07:28:58;;;;;;;;;10.25;8.50;;;;;23.01;55.89;100936.63;5083282;27;45309;-80
2021/08/10 07:31:23;;;;;;;;;7.25;7.00;;;;;23.03;56.44;100942.78;5082480;27;45416;-82
2021/08/10 07:33:49;;;;;;;;;9.75;9.75;;;;;23.06;58.04;100932.00;5080893;28;51101;-76
2021/08/10 07:36:15;;;;;;;;;72.50;58.50;;;;;23.13;59.20;100934.38;5071372;28;45656;-79
2021/08/10 07:38:40;;;;;;;;;52.00;42.50;;;;;23.23;59.34;100936.66;5052273;28;56418;-79
2021/08/10 07:41:06;;;;;;;;;35.25;31.50;;;;;23.34;59.65;100939.75;5081722;28;45769;-77
2021/08/10 07:43:31;;;;;;;;;29.50;25.00;;;;;23.44;59.45;100943.75;5080202;28;53230;-78
2021/08/10 07:45:56;;;;;;;;;14.50;14.50;;;;;23.52;58.40;100946.13;5063525;28;54298;-78
2021/08/10 07:48:22;;;;;;;;;12.75;12.25;;;;;23.58;58.58;100945.88;5080566;28;45225;-77
2021/08/10 07:50:48;;;;;;;;;14.50;13.00;;;;;23.63;57.92;100942.13;5080089;28;45299;-77
2021/08/10 07:53:19;;;;;;;;;8.75;8.75;;;;;23.68;56.88;100942.78;5080215;27;45686;-77
2021/08/10 07:55:44;;;;;;;;;9.00;8.00;;;;;23.69;56.63;100939.19;5062416;28;45465;-77
2021/08/10 07:58:12;;;;;;;;;9.25;8.00;;;;;23.74;56.50;100932.81;5052611;28;62427;-77
2021/08/10 08:00:38;;;;;;;;;9.25;7.75;;;;;23.77;56.36;100944.19;5079565;28;47142;-76
2021/08/10 08:03:03;;;;;;;;;6.00;6.00;;;;;23.77;56.68;100938.88;5061665;28;47272;-78
2021/08/10 08:05:29;;;;;;;;;8.75;8.75;;;;;23.84;55.52;100947.47;5086260;27;59259;-81
2021/08/10 08:07:54;;;;;;;;;12.00;8.00;;;;;23.84;55.43;100948.34;5085783;27;45423;-80
2021/08/10 08:10:20;;;;;;;;;7.00;7.00;;;;;23.86;55.59;100954.47;5051266;28;45383;-81
2021/08/10 08:12:45;;;;;;;;;10.75;9.50;;;;;23.86;55.37;100945.63;5061273;28;47404;-80
2021/08/10 08:15:15;;;;;;;;;7.50;7.25;;;;;23.86;55.64;100946.47;5078481;28;63155;-82
2021/08/10 08:17:40;;;;;;;;;9.00;6.00;;;;;23.85;56.31;100946.53;5069276;27;45801;-80
2021/08/10 08:20:06;;;;;;;;;11.25;7.75;;;;;23.76;55.91;100947.81;5071594;27;46488;-79
2021/08/10 08:22:32;;;;;;;;;5.50;5.50;;;;;23.71;55.69;100943.59;5079473;28;45387;-78
2021/08/10 08:24:57;;;;;;;;;6.75;6.75;;;;;23.64;56.12;100951.84;5054110;28;45463;-78
2021/08/10 08:27:23;;;;;;;;;8.50;7.75;;;;;23.61;56.33;100948.44;5062966;28;45422;-78
2021/08/10 08:29:48;;;;;;;;;6.00;6.00;;;;;23.57;55.58;100947.69;5081058;28;45617;-77
2021/08/10 08:32:14;;;;;;;;;8.00;6.75;;;;;23.52;55.85;100951.44;5063435;28;45583;-79
2021/08/10 08:34:39;;;;;;;;;8.50;8.25;;;;;23.53;56.14;100954.03;5063384;28;45205;-78
2021/08/10 08:37:05;;;;;;;;;7.25;6.25;;;;;23.53;56.12;100958.50;5081437;28;45417;-79
2021/08/10 08:39:30;;;;;;;;;8.00;6.75;;;;;23.49;55.42;100949.78;5062952;28;45544;-78
2021/08/10 08:41:59;;;;;;;;;7.75;7.75;;;;;23.51;55.83;100947.06;5081101;27;45297;-78
2021/08/10 08:44:24;;;;;;;;;7.25;7.00;;;;;23.51;55.70;100950.59;5080215;28;45344;-78
2021/08/10 08:46:50;;;;;;;;;5.75;4.00;;;;;23.52;55.57;100954.97;5081563;27;45985;-78
2021/08/10 08:49:15;;;;;;;;;7.00;7.00;;;;;23.48;56.03;100945.38;5080676;27;62856;-78
2021/08/10 08:51:44;;;;;;;;;8.00;6.00;;;;;23.48;55.97;100947.19;5062773;28;46180;-78
2021/08/10 08:54:12;;;;;;;;;6.00;6.00;;;;;23.45;56.24;100949.97;5080063;28;45260;-78
2021/08/10 08:56:37;;;;;;;;;5.50;5.50;;;;;23.41;55.98;100946.56;5063730;28;45457;-77
2021/08/10 08:59:03;;;;;;;;;7.75;7.25;;;;;23.40;55.92;100944.84;5062772;28;51170;-78
2021/08/10 09:01:29;;;;;;;;;8.00;6.75;;;;;23.37;55.74;100937.84;5078951;28;60922;-78
2021/08/10 09:03:54;;;;;;;;;7.00;7.00;;;;;23.37;55.60;100936.97;5063223;28;45456;-77
2021/08/10 09:06:21;;;;;;;;;7.75;6.50;;;;;23.37;55.77;100939.66;5080110;27;64915;-77
2021/08/10 09:08:48;;;;;;;;;6.50;6.50;;;;;23.37;56.15;100934.31;5079597;28;45591;-77
2021/08/10 09:11:18;;;;;;;;;7.00;6.50;;;;;23.39;56.01;100933.31;5079270;28;45386;-78
2021/08/10 09:13:56;;;;;;;;;7.50;6.00;;;;;23.40;56.29;100934.19;5080487;28;45274;-78
2021/08/10 09:16:22;;;;;;;;;7.25;7.25;;;;;23.45;55.53;100934.84;5079915;28;45322;-77
2021/08/10 09:18:47;;;;;;;;;7.25;6.00;;;;;23.47;56.10;100941.00;5056650;28;46260;-78
2021/08/10 09:21:14;;;;;;;;;9.00;8.25;;;;;23.49;55.63;100943.59;5067929;28;58460;-78
2021/08/10 09:23:48;;;;;;;;;7.00;7.00;;;;;23.50;55.42;100932.00;5074779;28;45444;-78
2021/08/10 09:26:16;;;;;;;;;7.00;4.00;;;;;23.53;55.23;100938.06;5061257;27;45641;-77
2021/08/10 09:28:41;;;;;;;;;5.00;5.00;;;;;23.52;55.25;100936.31;5061393;28;45736;-77
2021/08/10 09:31:36;;;;;;;;;5.50;4.00;;;;;23.55;55.18;100935.34;5078971;28;47279;-77
2021/08/10 09:34:07;;;;;;;;;6.00;5.50;;;;;23.56;54.43;100935.28;5078691;28;45436;-78
2021/08/10 09:36:33;;;;;;;;;6.00;3.75;;;;;23.59;54.57;100934.28;5072488;28;45717;-78
2021/08/10 09:38:59;;;;;;;;;4.25;4.25;;;;;23.60;54.76;100934.25;5060783;28;45944;-77
2021/08/10 09:41:25;;;;;;;;;5.75;5.00;;;;;23.64;55.20;100932.34;5074865;28;46142;-77
2021/08/10 09:44:14;;;;;;;;;5.75;4.75;;;;;23.71;54.81;100932.94;5095267;27;45405;-78
2021/08/10 09:46:47;;;;;;;;;6.25;5.25;;;;;23.79;54.72;100937.00;5079515;28;45349;-77
2021/08/10 09:49:17;;;;;;;;;10.00;8.25;;;;;23.80;55.48;100921.88;5085194;27;45487;-86
2021/08/10 09:51:43;;;;;;;;;7.25;7.25;;;;;23.92;54.62;100926.69;5111770;27;45416;-76
2021/08/10 09:54:18;;;;;;;;;6.50;6.00;;;;;24.01;54.65;100928.97;5036391;28;45568;-83
2021/08/10 09:56:52;;;;;;;;;6.00;6.00;;;;;24.07;53.97;100930.50;5068445;28;45696;-78
2021/08/10 10:00:08;;;;;;;;;4.25;4.00;;;;;24.09;52.71;100931.31;5106665;27;45242;-78
2021/08/10 10:02:36;;;;;;;;;6.00;6.00;;;;;24.14;51.49;100926.63;5076087;28;46027;-82
2021/08/10 10:05:39;;;;;;;;;4.75;4.75;;;;;24.15;51.79;100925.69;5091166;28;44783;-80
2021/08/10 10:08:21;;;;;;;;;4.00;4.00;;;;;24.07;52.19;100918.03;5081373;28;45661;-81
2021/08/10 10:10:47;;;;;;;;;5.75;5.25;;;;;24.21;51.53;100938.75;5096753;27;45447;-82
2021/08/10 10:13:16;;;;;;;;;7.25;5.75;;;;;24.22;51.66;100936.00;5083058;27;45258;-80
2021/08/10 10:15:42;;;;;;;;;4.25;4.25;;;;;24.25;51.99;100933.22;5064695;28;45575;-82
2021/08/10 10:18:11;;;;;;;;;7.75;5.25;;;;;24.28;51.58;100937.56;5063451;28;45335;-81
2021/08/10 10:20:46;;;;;;;;;6.25;5.00;;;;;24.30;52.33;100934.81;5057693;28;45443;-79
2021/08/10 10:23:16;;;;;;;;;4.75;4.25;;;;;24.34;51.44;100933.78;5078685;28;47341;-79
2021/08/10 10:25:42;;;;;;;;;8.25;6.00;;;;;24.29;51.22;100922.41;5079897;27;45388;-79
2021/08/10 10:28:07;;;;;;;;;4.25;4.00;;;;;24.31;51.06;100918.72;5078729;28;45389;-80
2021/08/10 10:30:33;;;;;;;;;6.75;6.00;;;;;24.34;50.54;100931.13;5044426;28;57660;-79
2021/08/10 10:32:58;;;;;;;;;5.50;4.00;;;;;24.28;50.46;100926.88;5060839;28;66455;-80
2021/08/10 10:35:24;;;;;;;;;4.00;4.00;;;;;24.22;50.38;100911.13;5079600;28;45428;-80
2021/08/10 10:37:50;;;;;;;;;5.00;3.75;;;;;24.20;50.33;100908.53;5078177;28;50857;-80
2021/08/10 10:40:17;;;;;;;;;4.25;4.00;;;;;24.26;50.15;100920.75;5061519;28;45487;-78
2021/08/10 10:42:44;;;;;;;;;3.75;3.75;;;;;24.28;49.68;100920.69;5064877;28;45284;-81
2021/08/10 10:45:36;;;;;;;;;4.00;4.00;;;;;24.29;49.54;100917.06;5064978;28;45261;-81
2021/08/10 10:48:08;;;;;;;;;7.00;6.25;;;;;24.24;49.21;100914.63;5066964;28;45444;-81
2021/08/10 10:50:33;;;;;;;;;5.00;4.00;;;;;24.29;49.21;100922.41;5065968;28;45385;-82
2021/08/10 10:53:00;;;;;;;;;5.00;4.00;;;;;24.29;50.11;100909.06;5081393;28;50321;-80
2021/08/10 10:55:34;;;;;;;;;6.00;4.50;;;;;24.29;49.69;100907.28;5081559;28;45353;-81
2021/08/10 10:58:45;;;;;;;;;4.00;4.00;;;;;24.33;49.97;100911.59;5067874;28;45371;-80
2021/08/10 11:02:11;;;;;;;;;;;;;;;;;;;;;
2021/08/10 11:18:33;;;;;;;;;5.00;4.00;;;;;24.39;50.03;100905.94;4935111;28;45737;-81
2021/08/10 11:25:00;;;;;;;;;5.25;4.25;;;;;24.39;50.46;100892.59;4961012;28;45522;-82
2021/08/10 11:27:50;;;;;;;;;8.00;4.25;;;;;24.50;50.36;100902.81;4947285;28;45336;-80
2021/08/10 11:30:49;;;;;;;;;;;;;;;;;;;;;
2021/08/10 11:33:48;;;;;;;;;4.00;4.00;;;;;24.68;50.70;100911.78;4953836;28;73572;-82
2021/08/10 11:37:05;;;;;;;;;;;;;;;;;;;;;
2021/08/10 11:46:59;;;;;;;;;4.00;4.00;;;;;24.68;50.33;100904.63;5039524;28;45710;-76
2021/08/10 11:49:27;;;;;;;;;5.00;5.00;;;;;24.70;50.18;100910.75;5019791;28;45460;-76
2021/08/10 11:51:55;;;;;;;;;6.00;5.00;;;;;24.76;50.14;100917.63;5056212;28;48862;-75
2021/08/10 11:54:24;;;;;;;;;7.25;6.00;;;;;24.81;50.49;100918.25;5080692;27;47439;-75
2021/08/10 11:56:53;;;;;;;;;6.25;5.00;;;;;24.83;50.28;100920.84;5089016;27;45500;-77
2021/08/10 12:00:41;;;;;;;;;;;;;;;;;;;;;